Time,TemperatureF,DewpointF,PressureIn,WindDirection,WindDirectionDegrees,WindSpeedMPH,WindSpeedGustMPH,Humidity,HourlyPrecipIn,Conditions,Clouds,dailyrainin,SoftwareType,DateUTC
2013-01-07 00:03:00,29.5,26.0,29.96,NW,321,0.0,1.0,85,0.00,,,0.00,weatherlink.com 1.10,2013-01-07 05:03:00,
2013-01-07 00:18:00,29.4,26.0,29.96,NE,34,0.0,0.0,85,0.00,,,0.00,weatherlink.com 1.10,2013-01-07 05:18:00,
2013-01-07 00:33:00,29.0,25.0,29.96,West,269,0.0,1.0,85,0.00,,,0.00,weatherlink.com 1.10,2013-01-07 05:33:00,
2013-01-07 00:48:00,28.8,25.0,29.97,West,264,0.0,0.0,85,0.00,,,0.00,weatherlink.com 1.10,2013-01-07 05:48:00,
2013-01-07 01:03:00,28.4,25.0,29.98,West,264,0.0,0.0,87,0.00,,,0.00,weatherlink.com 1.10,2013-01-07 06:03:00,
2013-01-07 01:18:00,28.9,26.0,29.98,West,264,0.0,0.0,88,0.00,,,0.00,weatherlink.com 1.10,2013-01-07 06:18:00,
2013-01-07 01:33:00,29.3,26.0,29.99,West,264,0.0,0.0,86,0.00,,,0.00,weatherlink.com 1.10,2013-01-07 06:33:00,
2013-01-07 01:48:00,30.1,26.0,29.99,West,264,0.0,0.0,85,0.00,,,0.00,weatherlink.com 1.10,2013-01-07 06:48:00,
2013-01-07 02:03:00,29.7,26.0,30.00,West,264,0.0,0.0,85,0.00,,,0.00,weatherlink.com 1.10,2013-01-07 07:03:00,
2013-01-07 02:18:00,29.0,25.0,30.00,West,264,0.0,0.0,86,0.00,,,0.00,weatherlink.com 1.10,2013-01-07 07:18:00,
2013-01-07 02:33:00,28.3,25.0,30.00,West,264,0.0,0.0,88,0.00,,,0.00,weatherlink.com 1.10,2013-01-07 07:33:00,
2013-01-07 02:48:00,28.0,25.0,30.00,West,264,0.0,0.0,88,0.00,,,0.00,weatherlink.com 1.10,2013-01-07 07:48:00,
2013-01-07 03:03:00,28.1,25.0,30.01,West,264,0.0,0.0,89,0.00,,,0.00,weatherlink.com 1.10,2013-01-07 08:03:00,
2013-01-07 03:18:00,27.3,25.0,30.01,West,264,0.0,0.0,89,0.00,,,0.00,weatherlink.com 1.10,2013-01-07 08:18:00,
2013-01-07 03:33:00,26.5,24.0,30.01,West,264,0.0,0.0,89,0.00,,,0.00,weatherlink.com 1.10,2013-01-07 08:33:00,
2013-01-07 03:48:00,26.1,24.0,30.02,West,277,0.0,0.0,90,0.00,,,0.00,weatherlink.com 1.10,2013-01-07 08:48:00,
2013-01-07 04:04:00,25.6,23.0,30.02,West,277,0.0,0.0,91,0.00,,,0.00,weatherlink.com 1.10,2013-01-07 09:04:00,
2013-01-07 04:19:00,26.0,24.0,30.02,NW,314,0.0,0.0,92,0.00,,,0.00,weatherlink.com 1.10,2013-01-07 09:19:00,
2013-01-07 04:34:00,27.7,26.0,30.03,North,352,1.0,2.0,93,0.00,,,0.00,weatherlink.com 1.10,2013-01-07 09:34:00,
2013-01-07 04:49:00,29.8,26.0,30.04,NW,325,1.0,2.0,87,0.00,,,0.00,weatherlink.com 1.10,2013-01-07 09:49:00,
2013-01-07 05:04:00,30.5,27.0,30.05,NW,314,0.0,5.0,87,0.00,,,0.00,weatherlink.com 1.10,2013-01-07 10:04:00,
2013-01-07 05:19:00,31.8,28.0,30.06,NW,316,1.0,2.0,87,0.00,,,0.00,weatherlink.com 1.10,2013-01-07 10:19:00,
2013-01-07 05:34:00,32.4,29.0,30.07,North,351,1.0,5.0,87,0.00,,,0.00,weatherlink.com 1.10,2013-01-07 10:34:00,
2013-01-07 05:49:00,32.6,30.0,30.09,NNW,332,0.0,4.0,89,0.00,,,0.00,weatherlink.com 1.10,2013-01-07 10:49:00,
2013-01-07 06:04:00,33.1,30.0,30.09,NW,311,2.0,5.0,89,0.00,,,0.00,weatherlink.com 1.10,2013-01-07 11:04:00,
2013-01-07 06:19:00,33.3,30.0,30.11,NNW,331,5.0,7.0,88,0.00,,,0.00,weatherlink.com 1.10,2013-01-07 11:19:00,
2013-01-07 06:34:00,33.5,29.0,30.12,NW,322,7.0,8.0,83,0.00,,,0.00,weatherlink.com 1.10,2013-01-07 11:34:00,
2013-01-07 06:49:00,33.2,27.0,30.13,NW,315,2.0,10.0,78,0.00,,,0.00,weatherlink.com 1.10,2013-01-07 11:49:00,
2013-01-07 07:04:00,32.5,26.0,30.14,NNW,333,1.0,5.0,77,0.00,,,0.00,weatherlink.com 1.10,2013-01-07 12:04:00,
2013-01-07 07:19:00,31.9,25.0,30.15,NW,326,4.0,7.0,77,0.00,,,0.00,weatherlink.com 1.10,2013-01-07 12:19:00,
2013-01-07 07:34:00,31.3,25.0,30.16,NNW,333,0.0,4.0,77,0.00,,,0.00,weatherlink.com 1.10,2013-01-07 12:34:00,
2013-01-07 07:49:00,30.9,24.0,30.17,WNW,290,2.0,6.0,75,0.00,,,0.00,weatherlink.com 1.10,2013-01-07 12:49:00,
2013-01-07 08:04:00,30.6,23.0,30.18,NW,315,1.0,8.0,74,0.00,,,0.00,weatherlink.com 1.10,2013-01-07 13:04:00,
2013-01-07 08:19:00,30.5,23.0,30.20,NW,326,2.0,8.0,74,0.00,,,0.00,weatherlink.com 1.10,2013-01-07 13:19:00,
2013-01-07 08:34:00,30.8,23.0,30.22,ENE,75,5.0,9.0,72,0.00,,,0.00,weatherlink.com 1.10,2013-01-07 13:34:00,
2013-01-07 08:49:00,30.5,22.0,30.24,NNE,23,4.0,7.0,70,0.00,,,0.00,weatherlink.com 1.10,2013-01-07 13:49:00,
2013-01-07 09:05:00,30.5,21.0,30.25,WNW,285,0.0,10.0,69,0.00,,,0.00,weatherlink.com 1.10,2013-01-07 14:05:00,
2013-01-07 09:20:00,30.5,21.0,30.26,NW,311,4.0,9.0,68,0.00,,,0.00,weatherlink.com 1.10,2013-01-07 14:20:00,
2013-01-07 09:35:00,31.4,21.0,30.27,ENE,74,0.0,4.0,66,0.00,,,0.00,weatherlink.com 1.10,2013-01-07 14:35:00,
2013-01-07 09:50:00,31.4,20.0,30.29,WNW,300,3.0,9.0,64,0.00,,,0.00,weatherlink.com 1.10,2013-01-07 14:50:00,
2013-01-07 10:05:00,31.3,20.0,30.29,North,360,2.0,10.0,64,0.00,,,0.00,weatherlink.com 1.10,2013-01-07 15:05:00,
2013-01-07 10:20:00,31.2,21.0,30.29,SSE,166,1.0,14.0,65,0.00,,,0.00,weatherlink.com 1.10,2013-01-07 15:20:00,
2013-01-07 10:35:00,30.9,20.0,30.29,WNW,292,2.0,10.0,64,0.00,,,0.00,weatherlink.com 1.10,2013-01-07 15:35:00,
2013-01-07 10:50:00,30.9,20.0,30.30,WSW,258,4.0,10.0,63,0.00,,,0.00,weatherlink.com 1.10,2013-01-07 15:50:00,
2013-01-07 11:05:00,31.1,19.0,30.30,North,351,2.0,10.0,62,0.00,,,0.00,weatherlink.com 1.10,2013-01-07 16:05:00,
2013-01-07 11:20:00,30.4,18.0,30.30,North,351,5.0,9.0,61,0.00,,,0.00,weatherlink.com 1.10,2013-01-07 16:20:00,
2013-01-07 11:35:00,30.8,19.0,30.30,NNW,331,8.0,9.0,61,0.00,,,0.00,weatherlink.com 1.10,2013-01-07 16:35:00,
2013-01-07 11:50:00,31.9,18.0,30.30,SW,226,1.0,7.0,57,0.00,,,0.00,weatherlink.com 1.10,2013-01-07 16:50:00,
2013-01-07 12:05:00,31.6,18.0,30.30,WNW,292,1.0,7.0,58,0.00,,,0.00,weatherlink.com 1.10,2013-01-07 17:05:00,
2013-01-07 12:20:00,31.2,18.0,30.31,SW,231,1.0,9.0,58,0.00,,,0.00,weatherlink.com 1.10,2013-01-07 17:20:00,
2013-01-07 12:35:00,32.3,18.0,30.32,NNW,328,6.0,6.0,55,0.00,,,0.00,weatherlink.com 1.10,2013-01-07 17:35:00,
2013-01-07 12:50:00,31.6,17.0,30.32,NNW,329,7.0,7.0,56,0.00,,,0.00,weatherlink.com 1.10,2013-01-07 17:50:00,
2013-01-07 13:05:00,31.4,16.0,30.32,NW,308,5.0,9.0,53,0.00,,,0.00,weatherlink.com 1.10,2013-01-07 18:05:00,
2013-01-07 13:20:00,32.3,16.0,30.32,NW,316,2.0,6.0,51,0.00,,,0.00,weatherlink.com 1.10,2013-01-07 18:20:00,
2013-01-07 13:35:00,32.3,16.0,30.32,NW,316,2.0,8.0,51,0.00,,,0.00,weatherlink.com 1.10,2013-01-07 18:35:00,
2013-01-07 13:50:00,33.6,17.0,30.32,SW,225,1.0,6.0,51,0.00,,,0.00,weatherlink.com 1.10,2013-01-07 18:50:00,
2013-01-07 14:05:00,33.2,16.0,30.33,West,274,2.0,5.0,49,0.00,,,0.00,weatherlink.com 1.10,2013-01-07 19:05:00,
2013-01-07 14:20:00,33.9,16.0,30.34,West,259,3.0,4.0,49,0.00,,,0.00,weatherlink.com 1.10,2013-01-07 19:20:00,
2013-01-07 14:35:00,33.6,16.0,30.34,South,187,2.0,5.0,48,0.00,,,0.00,weatherlink.com 1.10,2013-01-07 19:35:00,
2013-01-07 14:50:00,33.3,14.0,30.34,NW,316,4.0,7.0,45,0.00,,,0.00,weatherlink.com 1.10,2013-01-07 19:50:00,
2013-01-07 15:05:00,33.9,14.0,30.34,NNW,333,2.0,3.0,44,0.00,,,0.00,weatherlink.com 1.10,2013-01-07 20:05:00,
2013-01-07 15:20:00,33.3,12.0,30.35,NW,307,1.0,5.0,41,0.00,,,0.00,weatherlink.com 1.10,2013-01-07 20:20:00,
2013-01-07 15:35:00,32.7,13.0,30.36,NNW,340,1.0,2.0,44,0.00,,,0.00,weatherlink.com 1.10,2013-01-07 20:35:00,
2013-01-07 15:50:00,31.6,13.0,30.36,NW,316,0.0,3.0,46,0.00,,,0.00,weatherlink.com 1.10,2013-01-07 20:50:00,
2013-01-07 16:05:00,30.2,13.0,30.37,North,359,1.0,2.0,48,0.00,,,0.00,weatherlink.com 1.10,2013-01-07 21:05:00,
2013-01-07 16:20:00,28.9,15.0,30.37,North,354,0.0,1.0,57,0.00,,,0.00,weatherlink.com 1.10,2013-01-07 21:20:00,
2013-01-07 16:50:00,26.7,13.0,30.37,North,354,0.0,1.0,57,0.00,,,0.00,weatherlink.com 1.10,2013-01-07 21:50:00,
2013-01-07 17:05:00,25.9,12.0,30.37,North,354,0.0,1.0,56,0.00,,,0.00,weatherlink.com 1.10,2013-01-07 22:05:00,
2013-01-07 17:20:00,24.8,15.0,30.37,North,354,0.0,0.0,65,0.00,,,0.00,weatherlink.com 1.10,2013-01-07 22:20:00,
2013-01-07 17:35:00,24.0,14.0,30.38,North,354,0.0,1.0,65,0.00,,,0.00,weatherlink.com 1.10,2013-01-07 22:35:00,
2013-01-07 17:51:00,23.0,14.0,30.39,North,354,0.0,0.0,69,0.00,,,0.00,weatherlink.com 1.10,2013-01-07 22:51:00,
2013-01-07 18:06:00,22.2,14.0,30.40,North,354,0.0,0.0,71,0.00,,,0.00,weatherlink.com 1.10,2013-01-07 23:06:00,
2013-01-07 18:21:00,21.7,15.0,30.40,North,354,0.0,0.0,74,0.00,,,0.00,weatherlink.com 1.10,2013-01-07 23:21:00,
2013-01-07 18:36:00,21.1,13.0,30.39,North,360,0.0,1.0,72,0.00,,,0.00,weatherlink.com 1.10,2013-01-07 23:36:00,
2013-01-07 18:51:00,21.0,15.0,30.39,North,360,0.0,0.0,76,0.00,,,0.00,weatherlink.com 1.10,2013-01-07 23:51:00,
2013-01-07 19:06:00,20.4,13.0,30.38,North,360,0.0,0.0,74,0.00,,,0.00,weatherlink.com 1.10,2013-01-08 00:06:00,
2013-01-07 19:21:00,19.6,13.0,30.38,North,360,0.0,0.0,76,0.00,,,0.00,weatherlink.com 1.10,2013-01-08 00:21:00,
2013-01-07 19:36:00,18.9,13.0,30.38,North,360,0.0,0.0,77,0.00,,,0.00,weatherlink.com 1.10,2013-01-08 00:36:00,
2013-01-07 19:51:00,18.3,13.0,30.38,North,360,0.0,0.0,79,0.00,,,0.00,weatherlink.com 1.10,2013-01-08 00:51:00,
2013-01-07 20:06:00,17.6,12.0,30.38,North,360,0.0,0.0,80,0.00,,,0.00,weatherlink.com 1.10,2013-01-08 01:06:00,
2013-01-07 20:21:00,17.8,12.0,30.38,North,359,0.0,1.0,79,0.00,,,0.00,weatherlink.com 1.10,2013-01-08 01:21:00,
2013-01-07 20:36:00,17.2,12.0,30.38,North,358,0.0,0.0,80,0.00,,,0.00,weatherlink.com 1.10,2013-01-08 01:36:00,
2013-01-07 20:51:00,16.5,12.0,30.37,North,359,0.0,0.0,82,0.00,,,0.00,weatherlink.com 1.10,2013-01-08 01:51:00,
2013-01-07 21:06:00,16.2,12.0,30.38,North,358,0.0,0.0,83,0.00,,,0.00,weatherlink.com 1.10,2013-01-08 02:06:00,
2013-01-07 21:21:00,16.0,12.0,30.37,North,359,0.0,0.0,84,0.00,,,0.00,weatherlink.com 1.10,2013-01-08 02:21:00,
2013-01-07 21:36:00,15.6,11.0,30.38,North,359,0.0,0.0,83,0.00,,,0.00,weatherlink.com 1.10,2013-01-08 02:36:00,
2013-01-07 21:51:00,15.7,12.0,30.38,North,359,0.0,0.0,84,0.00,,,0.00,weatherlink.com 1.10,2013-01-08 02:51:00,
2013-01-07 22:06:00,15.9,12.0,30.37,North,359,0.0,1.0,84,0.00,,,0.00,weatherlink.com 1.10,2013-01-08 03:06:00,
2013-01-07 22:21:00,15.7,11.0,30.37,North,358,0.0,0.0,83,0.00,,,0.00,weatherlink.com 1.10,2013-01-08 03:21:00,
2013-01-07 22:36:00,15.8,12.0,30.37,North,357,0.0,0.0,84,0.00,,,0.00,weatherlink.com 1.10,2013-01-08 03:36:00,
2013-01-07 22:51:00,16.1,12.0,30.36,North,357,0.0,1.0,83,0.00,,,0.00,weatherlink.com 1.10,2013-01-08 03:51:00,
2013-01-07 23:06:00,16.1,12.0,30.36,North,358,0.0,0.0,82,0.00,,,0.00,weatherlink.com 1.10,2013-01-08 04:06:00,
2013-01-07 23:21:00,16.4,12.0,30.36,North,359,0.0,1.0,83,0.00,,,0.00,weatherlink.com 1.10,2013-01-08 04:21:00,
2013-01-07 23:36:00,15.6,11.0,30.35,North,359,0.0,0.0,83,0.00,,,0.00,weatherlink.com 1.10,2013-01-08 04:36:00,
2013-01-07 23:51:00,14.6,10.0,30.35,North,359,0.0,0.0,83,0.00,,,0.00,weatherlink.com 1.10,2013-01-08 04:51:00,